Time;durP1;ratioP1;P1;durP2;ratioP2;P2;SDS_P1;SDS_P2;PMS_P1;PMS_P2;Temp;Humidity;BMP_temperature;BMP_pressure;BME280_temperature;BME280_humidity;BME280_pressure;Samples;Min_cycle;Max_cycle;Signal;HPM_P1;HPM_P2
2023/03/10 00:00:20;;;;;;;19.50;5.70;;;10.40;99.90;;;;;;5033509;28;20938;-74
2023/03/10 00:02:48;;;;;;;18.45;6.00;;;10.40;99.90;;;;;;5034115;28;20411;-74
2023/03/10 00:05:17;;;;;;;16.40;5.10;;;10.40;99.90;;;;;;5033258;28;20387;-73
2023/03/10 00:07:43;;;;;;;22.85;6.03;;;10.50;99.90;;;;;;5033576;28;20379;-74
2023/03/10 00:10:11;;;;;;;16.63;4.80;;;10.50;99.90;;;;;;5033441;28;20748;-74
2023/03/10 00:12:37;;;;;;;12.48;4.13;;;10.60;99.90;;;;;;5033199;28;20869;-74
2023/03/10 00:15:03;;;;;;;11.50;3.35;;;10.50;99.90;;;;;;5033131;28;20521;-74
2023/03/10 00:17:29;;;;;;;9.50;3.70;;;10.50;99.90;;;;;;5032018;28;20437;-74
2023/03/10 00:19:55;;;;;;;8.05;2.90;;;10.60;99.90;;;;;;5033063;28;20383;-73
2023/03/10 00:22:21;;;;;;;9.70;3.40;;;10.70;99.90;;;;;;5033894;28;20411;-73
2023/03/10 00:24:46;;;;;;;11.00;2.80;;;10.70;99.90;;;;;;5036557;28;20868;-72
2023/03/10 00:27:12;;;;;;;6.30;3.03;;;10.60;99.90;;;;;;5035767;28;20922;-72
2023/03/10 00:29:37;;;;;;;4.40;1.90;;;10.60;99.90;;;;;;5036908;28;20460;-73
2023/03/10 00:32:04;;;;;;;6.25;2.30;;;10.70;99.90;;;;;;5038766;28;20876;-73
2023/03/10 00:34:29;;;;;;;5.70;1.90;;;10.60;99.90;;;;;;5037034;28;20383;-73
2023/03/10 00:36:55;;;;;;;5.68;2.47;;;10.70;99.90;;;;;;5036381;28;20445;-74
2023/03/10 00:39:21;;;;;;;5.53;1.80;;;10.70;99.90;;;;;;5034597;28;20391;-73
2023/03/10 00:41:48;;;;;;;5.07;1.90;;;10.70;99.90;;;;;;5036349;28;20951;-73
2023/03/10 00:44:13;;;;;;;7.22;2.30;;;10.70;99.90;;;;;;5036776;28;20429;-73
2023/03/10 00:46:39;;;;;;;5.20;2.50;;;10.80;99.90;;;;;;5035125;28;20383;-75
2023/03/10 00:49:06;;;;;;;3.22;1.80;;;10.90;99.90;;;;;;5034298;28;20752;-73
2023/03/10 00:51:32;;;;;;;3.78;1.55;;;10.90;99.90;;;;;;5033799;28;20800;-74
2023/03/10 00:53:59;;;;;;;3.75;1.30;;;10.90;99.90;;;;;;5033624;28;20379;-74
2023/03/10 00:56:25;;;;;;;3.95;1.17;;;11.00;99.90;;;;;;5033527;28;20383;-73
2023/03/10 00:58:53;;;;;;;3.60;1.10;;;11.10;99.90;;;;;;5033874;28;20428;-74
2023/03/10 01:01:25;;;;;;;2.50;1.00;;;11.10;99.90;;;;;;5033691;28;20737;-74
2023/03/10 01:03:51;;;;;;;2.83;1.08;;;11.10;99.90;;;;;;5033258;28;20406;-74
2023/03/10 01:06:17;;;;;;;3.28;1.10;;;11.10;99.90;;;;;;5033363;28;20380;-74
2023/03/10 01:08:43;;;;;;;3.97;1.00;;;11.20;99.90;;;;;;5032886;28;20542;-74
2023/03/10 01:11:13;;;;;;;1.77;1.10;;;11.20;99.90;;;;;;5032964;28;20737;-74
2023/03/10 01:13:38;;;;;;;2.10;0.97;;;11.20;99.90;;;;;;5033897;28;20915;-74
2023/03/10 01:16:04;;;;;;;3.40;1.30;;;11.20;99.90;;;;;;5033781;28;20391;-73
2023/03/10 01:18:30;;;;;;;1.10;0.90;;;11.30;99.90;;;;;;5031966;28;20403;-73
2023/03/10 01:20:56;;;;;;;2.80;1.13;;;11.20;99.90;;;;;;5032894;28;20383;-74
2023/03/10 01:23:23;;;;;;;3.50;1.00;;;11.20;99.90;;;;;;5033750;28;20409;-74
2023/03/10 01:25:49;;;;;;;2.20;0.90;;;11.20;99.90;;;;;;5034378;28;20381;-74
2023/03/10 01:28:15;;;;;;;4.13;1.10;;;11.20;99.90;;;;;;5033837;28;20485;-74
2023/03/10 01:30:41;;;;;;;3.38;1.08;;;11.20;99.90;;;;;;5034148;28;20426;-73
2023/03/10 01:33:08;;;;;;;3.65;1.35;;;11.10;99.90;;;;;;5032490;28;20395;-74
2023/03/10 01:35:33;;;;;;;1.70;1.30;;;11.10;99.90;;;;;;5033042;28;20780;-74
2023/03/10 01:37:59;;;;;;;2.10;1.30;;;11.20;99.90;;;;;;5032702;28;20398;-75
2023/03/10 01:40:25;;;;;;;2.25;1.20;;;11.20;99.90;;;;;;5030819;28;20872;-73
2023/03/10 01:42:52;;;;;;;2.47;1.27;;;11.20;99.90;;;;;;5032547;28;20414;-72
2023/03/10 01:45:17;;;;;;;5.22;1.33;;;11.20;99.90;;;;;;5033500;28;20800;-73
2023/03/10 01:47:44;;;;;;;3.83;1.37;;;11.10;99.90;;;;;;5032748;28;20383;-74
2023/03/10 01:50:16;;;;;;;3.80;1.50;;;11.00;99.90;;;;;;5032220;28;20384;-74
2023/03/10 01:52:45;;;;;;;4.22;1.70;;;11.00;99.90;;;;;;5031996;28;20432;-74
2023/03/10 01:55:26;;;;;;;2.30;1.40;;;11.00;99.90;;;;;;5031609;28;20945;-74
2023/03/10 01:57:54;;;;;;;4.30;1.70;;;10.90;99.90;;;;;;5031661;28;20383;-74
2023/03/10 02:00:21;;;;;;;4.40;2.20;;;10.80;99.90;;;;;;5031422;28;20446;-74
2023/03/10 02:02:56;;;;;;;3.97;2.20;;;10.70;99.90;;;;;;5029982;28;20545;-75
2023/03/10 02:05:22;;;;;;;5.18;2.25;;;10.70;99.90;;;;;;5031614;28;20426;-74
2023/03/10 02:07:49;;;;;;;3.10;1.50;;;10.70;99.90;;;;;;5031619;28;20895;-73
2023/03/10 02:10:15;;;;;;;4.10;1.50;;;10.80;99.90;;;;;;5031351;28;20899;-74
2023/03/10 02:12:42;;;;;;;1.97;1.10;;;10.80;99.90;;;;;;5031271;28;20503;-73
2023/03/10 02:15:10;;;;;;;2.35;1.00;;;10.80;99.90;;;;;;5031812;28;20395;-73
2023/03/10 02:17:36;;;;;;;6.60;1.13;;;10.80;99.90;;;;;;5029983;28;20811;-74
2023/03/10 02:20:08;;;;;;;2.50;1.10;;;10.80;99.90;;;;;;5031341;28;20757;-73
2023/03/10 02:22:34;;;;;;;2.70;1.00;;;10.90;99.90;;;;;;5032041;28;20410;-73
2023/03/10 02:25:20;;;;;;;3.00;1.30;;;10.90;99.90;;;;;;5033287;28;20426;-73
2023/03/10 02:27:46;;;;;;;2.30;1.20;;;10.90;99.90;;;;;;5032542;28;20436;-73
2023/03/10 02:30:23;;;;;;;1.65;0.95;;;10.80;99.90;;;;;;5032221;28;20383;-73
2023/03/10 02:32:55;;;;;;;1.58;1.20;;;10.80;99.90;;;;;;5031757;28;20776;-73
2023/03/10 02:35:20;;;;;;;2.65;1.40;;;10.80;99.90;;;;;;5031985;28;20386;-73
2023/03/10 02:37:49;;;;;;;3.50;1.30;;;10.80;99.90;;;;;;5031685;28;20403;-74
2023/03/10 02:40:24;;;;;;;2.20;1.33;;;10.80;99.90;;;;;;5032346;28;20391;-73
2023/03/10 02:42:51;;;;;;;1.80;1.20;;;10.70;99.90;;;;;;5040475;28;20483;-73
2023/03/10 02:45:17;;;;;;;1.40;1.20;;;10.70;99.90;;;;;;5046896;28;20387;-73
2023/03/10 02:47:42;;;;;;;2.10;1.20;;;10.70;99.90;;;;;;5042111;28;20401;-72
2023/03/10 02:50:10;;;;;;;3.17;1.20;;;10.70;99.90;;;;;;5043362;28;20446;-73
2023/03/10 02:52:49;;;;;;;2.13;1.20;;;10.60;99.90;;;;;;5055094;28;20386;-73
2023/03/10 02:55:16;;;;;;;1.90;1.20;;;10.60;99.90;;;;;;5056174;28;20442;-73
2023/03/10 02:57:42;;;;;;;5.35;1.30;;;10.60;99.90;;;;;;5040694;28;20407;-74
2023/03/10 03:00:10;;;;;;;4.03;1.20;;;10.50;99.90;;;;;;5042938;28;20394;-72
2023/03/10 03:02:35;;;;;;;2.00;1.20;;;10.60;99.90;;;;;;5034816;28;20489;-73
2023/03/10 03:05:01;;;;;;;4.17;1.33;;;10.70;99.90;;;;;;5037893;28;20411;-74
2023/03/10 03:07:27;;;;;;;2.78;1.20;;;10.70;99.90;;;;;;5034682;28;20910;-74
2023/03/10 03:09:53;;;;;;;3.38;1.30;;;10.60;99.90;;;;;;5035090;28;20729;-73
2023/03/10 03:12:18;;;;;;;5.15;1.75;;;10.60;99.90;;;;;;5037495;28;20394;-74
2023/03/10 03:14:44;;;;;;;2.90;1.20;;;10.60;99.90;;;;;;5038884;28;20947;-73
2023/03/10 03:17:10;;;;;;;6.18;1.67;;;10.50;99.90;;;;;;5043767;28;20391;-73
2023/03/10 03:19:35;;;;;;;4.55;1.40;;;10.50;99.90;;;;;;5053242;28;20403;-73
2023/03/10 03:22:01;;;;;;;5.15;1.40;;;10.30;99.90;;;;;;5039044;28;20391;-73
2023/03/10 03:24:26;;;;;;;5.93;1.67;;;10.30;99.90;;;;;;5033850;28;20389;-73
2023/03/10 03:26:52;;;;;;;4.10;1.43;;;10.30;99.90;;;;;;5033957;28;20768;-73
2023/03/10 03:29:17;;;;;;;4.67;1.33;;;10.30;99.90;;;;;;5032296;28;20395;-73
2023/03/10 03:31:43;;;;;;;5.00;1.40;;;10.30;99.90;;;;;;5033775;28;20449;-72
2023/03/10 03:34:09;;;;;;;2.47;1.30;;;10.40;99.90;;;;;;5033506;28;20424;-74
2023/03/10 03:36:36;;;;;;;2.72;1.50;;;10.60;99.90;;;;;;5033330;28;20438;-73
2023/03/10 03:39:05;;;;;;;4.20;1.80;;;10.50;99.90;;;;;;5033140;28;20387;-72
2023/03/10 03:41:31;;;;;;;4.22;1.80;;;10.50;99.90;;;;;;5033356;28;20812;-73
2023/03/10 03:43:56;;;;;;;3.23;1.60;;;10.50;99.90;;;;;;5033505;28;20447;-74
2023/03/10 03:46:22;;;;;;;3.67;1.60;;;10.40;99.90;;;;;;5034011;28;20779;-74
2023/03/10 03:48:48;;;;;;;2.80;1.50;;;10.40;99.90;;;;;;5033243;28;20441;-73
2023/03/10 03:51:13;;;;;;;2.60;1.13;;;10.30;99.90;;;;;;5033253;28;20387;-73
2023/03/10 03:53:39;;;;;;;3.50;1.40;;;10.40;99.90;;;;;;5033391;28;20398;-75
2023/03/10 03:56:05;;;;;;;4.10;1.87;;;10.30;99.90;;;;;;5033050;28;20494;-74
2023/03/10 03:58:30;;;;;;;3.90;1.80;;;10.20;99.90;;;;;;5032830;28;20860;-74
2023/03/10 04:00:56;;;;;;;4.13;1.40;;;10.20;99.90;;;;;;5033059;28;20391;-73
2023/03/10 04:03:22;;;;;;;5.07;1.80;;;10.10;99.90;;;;;;5033337;28;20406;-73
2023/03/10 04:05:47;;;;;;;5.38;1.80;;;10.10;99.90;;;;;;5032872;28;20394;-72
2023/03/10 04:08:13;;;;;;;3.03;1.70;;;10.10;99.90;;;;;;5033130;28;20375;-74
2023/03/10 04:10:39;;;;;;;5.10;2.10;;;10.00;99.90;;;;;;5033010;28;20828;-73
2023/03/10 04:13:05;;;;;;;3.25;1.60;;;9.90;99.90;;;;;;5032742;28;20482;-73
2023/03/10 04:15:31;;;;;;;4.50;2.50;;;9.90;99.90;;;;;;5032924;28;20514;-73
2023/03/10 04:17:56;;;;;;;2.70;1.93;;;9.90;99.90;;;;;;5032758;28;20394;-73
2023/03/10 04:20:23;;;;;;;4.97;2.10;;;9.80;99.90;;;;;;5032838;28;20721;-72
2023/03/10 04:22:50;;;;;;;3.40;1.80;;;9.80;99.90;;;;;;5032552;28;20410;-72
2023/03/10 04:25:16;;;;;;;5.97;1.80;;;9.80;99.90;;;;;;5033176;28;20865;-73
2023/03/10 04:27:42;;;;;;;6.55;2.30;;;9.90;99.90;;;;;;5032626;28;20422;-73
2023/03/10 04:30:10;;;;;;;3.17;1.80;;;9.90;99.90;;;;;;5033130;28;20799;-73
2023/03/10 04:32:36;;;;;;;4.85;2.00;;;9.90;99.90;;;;;;5032689;28;20430;-73
2023/03/10 04:35:01;;;;;;;6.13;1.98;;;9.80;99.90;;;;;;5033888;28;20729;-73
2023/03/10 04:37:27;;;;;;;5.13;2.30;;;9.90;99.90;;;;;;5032601;28;20457;-74
2023/03/10 04:39:52;;;;;;;4.93;2.40;;;9.90;99.90;;;;;;5033479;28;20422;-74
2023/03/10 04:42:18;;;;;;;6.40;2.60;;;9.90;99.90;;;;;;5033177;28;20494;-73
2023/03/10 04:44:43;;;;;;;5.97;2.07;;;9.90;99.90;;;;;;5033707;28;20418;-73
2023/03/10 04:47:09;;;;;;;4.63;2.53;;;9.90;99.90;;;;;;5032972;28;20769;-74
2023/03/10 04:49:37;;;;;;;5.30;2.00;;;9.90;99.90;;;;;;5032187;28;20383;-74
2023/03/10 04:52:03;;;;;;;9.15;2.38;;;9.90;99.90;;;;;;5031795;28;20394;-74
2023/03/10 04:54:28;;;;;;;8.43;2.73;;;10.00;99.90;;;;;;5032039;28;20371;-74
2023/03/10 04:56:54;;;;;;;7.27;2.10;;;10.10;99.90;;;;;;5028996;28;20398;-74
2023/03/10 04:59:20;;;;;;;7.93;2.00;;;10.10;99.90;;;;;;5031323;28;20392;-74
2023/03/10 05:01:46;;;;;;;9.85;2.28;;;10.10;99.90;;;;;;5032328;28;20387;-73
2023/03/10 05:04:12;;;;;;;4.38;1.70;;;10.10;99.90;;;;;;5030347;28;20476;-73
2023/03/10 05:06:37;;;;;;;6.50;2.20;;;10.10;99.90;;;;;;5031365;28;20478;-73
2023/03/10 05:09:03;;;;;;;6.40;2.00;;;10.10;99.90;;;;;;5030343;28;20402;-74
2023/03/10 05:11:29;;;;;;;7.80;2.80;;;10.10;99.90;;;;;;5031255;28;20413;-73
2023/03/10 05:13:55;;;;;;;6.93;2.10;;;10.10;99.90;;;;;;5032847;28;20971;-74
2023/03/10 05:16:21;;;;;;;10.95;3.10;;;10.10;99.90;;;;;;5032361;28;20474;-74
2023/03/10 05:18:47;;;;;;;6.97;1.90;;;10.10;99.90;;;;;;5031755;28;20399;-74
2023/03/10 05:21:13;;;;;;;6.50;2.30;;;10.20;99.90;;;;;;5033783;28;20399;-74
2023/03/10 05:23:38;;;;;;;10.25;2.40;;;10.20;99.90;;;;;;5031374;28;20509;-74
2023/03/10 05:26:06;;;;;;;13.80;3.20;;;10.20;99.90;;;;;;5032682;28;20423;-75
2023/03/10 05:28:32;;;;;;;9.80;2.50;;;10.20;99.90;;;;;;5031834;28;20406;-74
2023/03/10 05:30:58;;;;;;;9.65;2.30;;;10.20;99.90;;;;;;5031987;28;20387;-74
2023/03/10 05:33:23;;;;;;;11.93;3.17;;;10.20;99.90;;;;;;5036409;28;20427;-73
2023/03/10 05:35:49;;;;;;;8.67;3.00;;;10.30;99.90;;;;;;5039603;28;20383;-73
2023/03/10 05:38:15;;;;;;;8.10;2.70;;;10.30;99.90;;;;;;5036649;28;20398;-73
2023/03/10 05:40:41;;;;;;;8.38;2.70;;;10.30;99.90;;;;;;5036316;28;20462;-73
2023/03/10 05:43:07;;;;;;;16.70;3.38;;;10.30;99.90;;;;;;5035749;28;20434;-73
2023/03/10 05:45:33;;;;;;;12.63;3.30;;;10.30;99.90;;;;;;5036524;28;20383;-74
2023/03/10 05:47:59;;;;;;;14.43;2.75;;;10.40;99.90;;;;;;5035418;28;20391;-75
2023/03/10 05:50:24;;;;;;;9.65;2.78;;;10.40;99.90;;;;;;5042752;28;20384;-73
2023/03/10 05:52:50;;;;;;;9.57;2.50;;;10.40;99.90;;;;;;5040854;28;20394;-74
2023/03/10 05:55:17;;;;;;;9.10;2.60;;;10.40;96.60;;;;;;5033829;28;20460;-76
2023/03/10 05:57:43;;;;;;;12.60;2.30;;;10.40;97.80;;;;;;5031470;28;20399;-75
2023/03/10 06:00:10;;;;;;;12.15;2.55;;;10.40;98.00;;;;;;5032602;28;20395;-73
2023/03/10 06:02:37;;;;;;;11.13;2.80;;;10.40;99.30;;;;;;5032050;28;20709;-73
2023/03/10 06:05:05;;;;;;;13.38;3.42;;;10.40;99.20;;;;;;5031150;28;20393;-74
2023/03/10 06:07:31;;;;;;;9.23;3.05;;;10.40;99.90;;;;;;5031368;28;20746;-73
2023/03/10 06:09:56;;;;;;;12.60;3.00;;;10.40;99.90;;;;;;5030978;28;20819;-74
2023/03/10 06:12:22;;;;;;;18.48;3.22;;;10.40;99.20;;;;;;5030507;28;20555;-73
2023/03/10 06:14:47;;;;;;;11.82;3.20;;;10.40;99.90;;;;;;5030550;28;20445;-73
2023/03/10 06:17:13;;;;;;;13.55;3.63;;;10.40;99.90;;;;;;5030835;28;20379;-73
2023/03/10 06:19:38;;;;;;;12.00;3.40;;;10.50;99.90;;;;;;5031764;28;20387;-74
2023/03/10 06:22:04;;;;;;;14.80;3.60;;;10.50;99.80;;;;;;5034524;28;20887;-72
2023/03/10 06:24:30;;;;;;;12.17;2.90;;;10.50;99.90;;;;;;5035393;28;20430;-73
2023/03/10 06:26:55;;;;;;;11.37;3.50;;;10.60;99.90;;;;;;5034911;28;20390;-74
2023/03/10 06:29:21;;;;;;;10.73;2.80;;;10.50;99.90;;;;;;5035138;28;20730;-72
2023/03/10 06:31:46;;;;;;;12.93;2.93;;;10.50;99.90;;;;;;5034996;28;20394;-73
2023/03/10 06:34:12;;;;;;;12.65;3.22;;;10.50;99.90;;;;;;5034954;28;20399;-74
2023/03/10 06:36:39;;;;;;;18.55;4.22;;;10.40;99.90;;;;;;5035249;28;20540;-74
2023/03/10 06:39:05;;;;;;;12.50;3.58;;;10.40;99.90;;;;;;5034982;28;20478;-74
2023/03/10 06:41:32;;;;;;;16.63;4.30;;;10.40;99.90;;;;;;5034536;28;20391;-75
2023/03/10 06:43:57;;;;;;;12.80;4.00;;;10.40;99.90;;;;;;5034792;28;20414;-74
2023/03/10 06:46:24;;;;;;;16.35;3.53;;;10.50;99.90;;;;;;5034956;28;20399;-74
2023/03/10 06:48:50;;;;;;;9.65;3.40;;;10.40;99.90;;;;;;5034264;28;20811;-75
2023/03/10 06:51:18;;;;;;;15.15;3.80;;;10.40;99.90;;;;;;5034217;28;20375;-72
2023/03/10 06:53:44;;;;;;;13.25;3.35;;;10.30;99.90;;;;;;5034445;28;20395;-74
2023/03/10 06:56:12;;;;;;;12.00;3.10;;;10.40;99.90;;;;;;5034777;28;20422;-73
2023/03/10 06:58:39;;;;;;;13.20;3.80;;;10.50;99.90;;;;;;5033189;28;20395;-74
2023/03/10 07:01:06;;;;;;;8.25;3.13;;;10.60;99.90;;;;;;5034021;28;20449;-73
2023/03/10 07:03:32;;;;;;;12.32;3.60;;;10.70;99.90;;;;;;5034617;28;20923;-75
2023/03/10 07:05:58;;;;;;;11.32;4.10;;;10.80;99.90;;;;;;5034009;28;20389;-74
2023/03/10 07:08:25;;;;;;;15.48;5.32;;;11.00;99.50;;;;;;5040430;28;20440;-73
2023/03/10 07:10:50;;;;;;;12.70;4.28;;;11.00;98.70;;;;;;5034054;28;20383;-72
2023/03/10 07:13:16;;;;;;;10.15;3.38;;;11.00;96.20;;;;;;5034819;28;20730;-74
2023/03/10 07:15:43;;;;;;;11.82;3.20;;;11.10;95.70;;;;;;5036266;28;20445;-74
2023/03/10 07:18:09;;;;;;;13.57;3.83;;;11.20;89.70;;;;;;5036103;28;20391;-74
2023/03/10 07:20:37;;;;;;;12.25;4.72;;;11.20;88.80;;;;;;5036407;28;20390;-74
2023/03/10 07:23:03;;;;;;;9.48;2.53;;;11.20;89.90;;;;;;5035549;28;20884;-73
2023/03/10 07:25:28;;;;;;;16.00;3.45;;;11.20;90.80;;;;;;5035766;28;20394;-72
2023/03/10 07:27:54;;;;;;;13.10;3.17;;;11.20;91.80;;;;;;5034176;28;20474;-73
2023/03/10 07:30:19;;;;;;;13.07;2.77;;;11.10;93.20;;;;;;5034505;28;20717;-73
2023/03/10 07:32:45;;;;;;;11.83;2.87;;;11.20;93.30;;;;;;5032638;28;20426;-72
2023/03/10 07:35:10;;;;;;;21.10;3.63;;;11.20;93.60;;;;;;5033837;28;20395;-74
2023/03/10 07:37:38;;;;;;;11.40;3.50;;;11.10;95.50;;;;;;5037932;28;20383;-73
2023/03/10 07:40:05;;;;;;;9.10;2.75;;;11.10;97.30;;;;;;5049561;28;20398;-73
2023/03/10 07:42:30;;;;;;;10.30;3.30;;;11.10;98.00;;;;;;5049809;28;20399;-74
2023/03/10 07:44:56;;;;;;;9.70;3.70;;;11.30;97.40;;;;;;5043407;28;20794;-74
2023/03/10 07:47:21;;;;;;;13.90;4.47;;;11.50;96.10;;;;;;5034219;28;20740;-74
2023/03/10 07:49:47;;;;;;;10.90;3.37;;;11.60;93.20;;;;;;5033724;28;20445;-74
2023/03/10 07:52:17;;;;;;;10.33;3.10;;;11.80;90.50;;;;;;5033479;28;20875;-73
2023/03/10 07:54:43;;;;;;;11.80;3.60;;;11.90;87.90;;;;;;5032462;28;20482;-73
2023/03/10 07:57:10;;;;;;;12.53;2.80;;;11.90;88.70;;;;;;5034040;28;20545;-74
2023/03/10 07:59:36;;;;;;;12.82;4.90;;;12.10;86.80;;;;;;5032364;28;20710;-73
2023/03/10 08:02:01;;;;;;;8.73;2.90;;;12.40;83.30;;;;;;5031727;28;20429;-74
2023/03/10 08:04:27;;;;;;;9.83;3.13;;;12.60;79.00;;;;;;5033603;28;20415;-73
2023/03/10 08:06:53;;;;;;;8.20;2.70;;;12.80;76.10;;;;;;5033182;28;20387;-73
2023/03/10 08:09:18;;;;;;;8.23;2.90;;;12.70;73.20;;;;;;5033341;28;20461;-74
2023/03/10 08:11:44;;;;;;;15.95;3.42;;;12.50;75.50;;;;;;5031429;28;20379;-72
2023/03/10 08:14:09;;;;;;;12.20;5.18;;;12.30;78.10;;;;;;5033100;28;20435;-73
2023/03/10 08:16:36;;;;;;;10.25;3.58;;;12.20;81.90;;;;;;5033818;28;20405;-73
2023/03/10 08:19:02;;;;;;;9.73;3.20;;;12.10;84.10;;;;;;5033200;28;20383;-73
2023/03/10 08:21:28;;;;;;;11.95;3.20;;;11.90;86.40;;;;;;5035170;28;20383;-73
2023/03/10 08:23:54;;;;;;;13.13;4.10;;;11.90;87.20;;;;;;5042400;28;20410;-72
2023/03/10 08:26:20;;;;;;;14.03;3.90;;;12.00;87.70;;;;;;5051670;28;20391;-73
2023/03/10 08:28:47;;;;;;;10.13;3.30;;;12.20;86.60;;;;;;5041319;28;20399;-74
2023/03/10 08:31:18;;;;;;;12.65;3.58;;;12.30;83.30;;;;;;5031820;28;21449;-74
2023/03/10 08:33:44;;;;;;;13.30;3.47;;;12.40;81.50;;;;;;5032798;28;20383;-73
2023/03/10 08:36:14;;;;;;;10.05;3.28;;;12.50;79.90;;;;;;5033265;28;20872;-74
2023/03/10 08:38:40;;;;;;;12.20;3.07;;;12.60;77.70;;;;;;5032673;28;20455;-73
2023/03/10 08:41:15;;;;;;;9.55;3.08;;;12.60;76.20;;;;;;5032132;28;20395;-74
2023/03/10 08:43:41;;;;;;;13.57;3.23;;;12.70;74.50;;;;;;5032461;28;20916;-74
2023/03/10 08:46:07;;;;;;;7.50;2.90;;;12.80;72.40;;;;;;5033090;28;20387;-73
2023/03/10 08:48:33;;;;;;;11.45;3.65;;;12.80;72.50;;;;;;5034736;28;20383;-74
2023/03/10 08:50:59;;;;;;;15.93;3.20;;;12.90;71.40;;;;;;5035684;28;20375;-74
2023/03/10 08:53:24;;;;;;;11.23;2.70;;;12.90;69.70;;;;;;5032395;28;20395;-74
2023/03/10 08:55:50;;;;;;;12.03;3.40;;;13.00;69.20;;;;;;5032455;28;20602;-73
2023/03/10 08:58:16;;;;;;;10.30;3.20;;;13.40;63.10;;;;;;5033453;28;20398;-73
2023/03/10 09:00:42;;;;;;;12.95;3.05;;;13.40;63.20;;;;;;5033153;28;20387;-73
2023/03/10 09:03:09;;;;;;;10.73;2.80;;;13.40;62.00;;;;;;5032610;28;20414;-73
2023/03/10 09:05:36;;;;;;;9.05;3.00;;;13.50;62.90;;;;;;5032960;28;20394;-73
2023/03/10 09:08:02;;;;;;;15.52;4.00;;;13.60;60.90;;;;;;5032938;28;20394;-73
2023/03/10 09:10:27;;;;;;;9.93;3.28;;;13.70;59.10;;;;;;5032987;28;20376;-73
2023/03/10 09:12:53;;;;;;;10.00;2.90;;;13.90;58.30;;;;;;5032872;28;20393;-73
2023/03/10 09:15:18;;;;;;;12.75;3.38;;;14.20;54.60;;;;;;5033284;28;20379;-73
2023/03/10 09:17:44;;;;;;;11.53;3.77;;;14.30;52.80;;;;;;5032946;28;20532;-73
2023/03/10 09:20:10;;;;;;;13.20;3.63;;;14.30;53.60;;;;;;5031788;28;20390;-74
2023/03/10 09:22:36;;;;;;;12.67;3.37;;;14.50;51.50;;;;;;5031020;28;20406;-73
2023/03/10 09:25:02;;;;;;;11.38;3.10;;;14.60;51.30;;;;;;5031426;28;20379;-74
2023/03/10 09:27:27;;;;;;;17.15;3.20;;;14.70;49.20;;;;;;5030046;28;20449;-74
2023/03/10 09:29:53;;;;;;;13.80;2.80;;;14.80;46.50;;;;;;5031225;28;20407;-74
2023/03/10 09:32:18;;;;;;;13.80;3.60;;;15.20;46.10;;;;;;5031425;28;20386;-75
2023/03/10 09:34:44;;;;;;;11.20;3.03;;;15.30;46.00;;;;;;5031827;28;20498;-74
2023/03/10 09:37:10;;;;;;;11.98;2.90;;;15.20;43.00;;;;;;5031522;28;20454;-73
2023/03/10 09:39:36;;;;;;;14.02;3.33;;;15.20;44.80;;;;;;5031052;28;20391;-74
2023/03/10 09:42:09;;;;;;;11.43;3.33;;;15.10;45.40;;;;;;5030030;28;20394;-73
2023/03/10 09:44:51;;;;;;;17.20;3.60;;;15.10;43.00;;;;;;5031517;28;20453;-74
2023/03/10 09:47:40;;;;;;;10.35;3.17;;;15.20;40.10;;;;;;5031343;28;20461;-74
2023/03/10 09:50:33;;;;;;;10.65;3.70;;;15.20;38.90;;;;;;5031050;28;20437;-72
2023/03/10 09:53:25;;;;;;;8.02;2.65;;;15.20;36.40;;;;;;5031164;28;20751;-74
2023/03/10 09:55:50;;;;;;;14.40;3.33;;;15.10;34.50;;;;;;5031233;28;20474;-75
2023/03/10 09:58:38;;;;;;;11.67;2.60;;;15.10;34.40;;;;;;5030918;28;20441;-74
2023/03/10 10:01:05;;;;;;;10.52;2.38;;;15.10;33.30;;;;;;5030506;28;20379;-74
2023/03/10 10:03:33;;;;;;;18.13;3.15;;;14.90;34.60;;;;;;5031299;28;20406;-73
2023/03/10 10:06:00;;;;;;;14.85;3.47;;;15.00;34.10;;;;;;5030741;28;20407;-75
2023/03/10 10:08:29;;;;;;;12.55;2.63;;;15.00;35.50;;;;;;5030577;28;20441;-75
2023/03/10 10:10:57;;;;;;;8.60;2.15;;;14.90;33.80;;;;;;5030902;28;20394;-74
2023/03/10 10:13:25;;;;;;;7.20;2.40;;;14.90;34.40;;;;;;5031084;28;20387;-74
2023/03/10 10:16:14;;;;;;;10.45;3.50;;;15.00;32.50;;;;;;5030598;28;20418;-74
2023/03/10 10:18:46;;;;;;;11.85;2.90;;;15.10;33.10;;;;;;5031195;28;20394;-75
2023/03/10 10:21:18;;;;;;;14.38;3.50;;;15.10;32.60;;;;;;5034653;28;20383;-74
2023/03/10 10:23:47;;;;;;;15.15;3.30;;;15.20;33.20;;;;;;5042629;28;20494;-75
2023/03/10 10:26:26;;;;;;;12.13;2.72;;;15.40;34.00;;;;;;5047727;28;20383;-74
2023/03/10 10:28:54;;;;;;;16.88;3.50;;;15.70;32.60;;;;;;5049240;28;20403;-73
2023/03/10 10:31:38;;;;;;;10.18;3.13;;;15.90;31.70;;;;;;5039565;28;20713;-74
2023/03/10 10:34:24;;;;;;;12.80;3.08;;;15.80;31.70;;;;;;5030863;28;20812;-75
2023/03/10 10:36:53;;;;;;;15.18;3.17;;;15.70;31.60;;;;;;5031129;28;20402;-73
2023/03/10 10:39:42;;;;;;;11.52;3.10;;;15.60;31.00;;;;;;5033350;28;20390;-73
2023/03/10 10:42:27;;;;;;;10.68;2.70;;;15.40;30.10;;;;;;5029205;28;20438;-74
2023/03/10 10:44:55;;;;;;;10.02;2.70;;;15.10;31.30;;;;;;5034834;28;20529;-74
2023/03/10 10:47:29;;;;;;;9.48;2.40;;;14.90;32.80;;;;;;5035529;28;20391;-74
2023/03/10 10:50:09;;;;;;;13.52;3.20;;;14.80;33.40;;;;;;5037126;28;20379;-75
2023/03/10 10:52:34;;;;;;;14.27;3.17;;;14.70;35.70;;;;;;5037091;28;20864;-74
2023/03/10 10:55:01;;;;;;;7.77;2.60;;;14.60;35.10;;;;;;5039393;28;20379;-74
2023/03/10 10:57:37;;;;;;;12.40;2.72;;;14.60;34.10;;;;;;5043533;28;20398;-74
2023/03/10 11:00:21;;;;;;;12.07;2.33;;;14.80;32.70;;;;;;5038919;28;20398;-73
2023/03/10 11:02:47;;;;;;;7.80;2.55;;;14.90;32.10;;;;;;5036182;28;20453;-74
2023/03/10 11:05:16;;;;;;;8.68;2.30;;;14.80;33.70;;;;;;5036295;28;20385;-74
2023/03/10 11:07:43;;;;;;;8.00;2.40;;;14.80;32.70;;;;;;5043548;28;20379;-75
2023/03/10 11:10:18;;;;;;;8.60;2.58;;;15.10;31.70;;;;;;5035751;28;20385;-75
2023/03/10 11:12:49;;;;;;;9.98;1.85;;;15.10;32.70;;;;;;5034569;28;20398;-75
2023/03/10 11:15:53;;;;;;;7.80;2.00;;;15.10;31.70;;;;;;5034935;28;20387;-74
2023/03/10 11:18:29;;;;;;;8.63;1.63;;;14.80;31.60;;;;;;4974001;28;20407;-74
2023/03/10 11:21:12;;;;;;;4.32;1.40;;;14.40;32.40;;;;;;5027059;28;20394;-75
2023/03/10 11:24:05;;;;;;;3.97;1.33;;;14.30;33.60;;;;;;5034882;28;20460;-74
2023/03/10 11:26:44;;;;;;;5.88;1.33;;;14.10;36.80;;;;;;5002646;28;20424;-73
2023/03/10 11:29:37;;;;;;;4.43;1.30;;;14.10;39.00;;;;;;5033519;28;20435;-73
2023/03/10 11:32:41;;;;;;;4.10;1.20;;;14.00;39.70;;;;;;5035148;28;20432;-75
2023/03/10 11:35:25;;;;;;;3.35;1.30;;;13.80;42.30;;;;;;5033764;28;20391;-74
2023/03/10 11:38:14;;;;;;;4.93;1.77;;;13.80;44.10;;;;;;5033822;28;20414;-75
2023/03/10 11:40:48;;;;;;;5.28;1.60;;;13.60;45.60;;;;;;5032887;28;20801;-75
2023/03/10 11:43:32;;;;;;;7.03;1.77;;;13.40;48.80;;;;;;5033126;28;20407;-75
2023/03/10 11:46:06;;;;;;;4.95;1.50;;;13.30;51.70;;;;;;5034897;28;20382;-74
2023/03/10 11:49:02;;;;;;;6.22;1.95;;;13.00;53.20;;;;;;5034203;28;20399;-74
2023/03/10 11:52:01;;;;;;;7.10;1.60;;;12.80;58.80;;;;;;5033067;28;20478;-73
2023/03/10 11:54:32;;;;;;;7.45;2.08;;;12.50;61.90;;;;;;5032998;28;20545;-73
2023/03/10 11:57:02;;;;;;;7.80;2.33;;;12.30;66.90;;;;;;5033059;28;20394;-74
2023/03/10 11:59:30;;;;;;;7.18;2.30;;;12.10;71.60;;;;;;5032685;28;20391;-74
2023/03/10 12:02:18;;;;;;;3.42;2.00;;;12.00;73.70;;;;;;5032460;28;20419;-74
2023/03/10 12:05:06;;;;;;;6.28;2.10;;;11.90;77.40;;;;;;5032914;28;20397;-75
2023/03/10 12:07:46;;;;;;;8.98;2.50;;;12.00;76.90;;;;;;5032637;28;20876;-74
2023/03/10 12:10:11;;;;;;;5.90;2.60;;;12.10;78.10;;;;;;5033252;28;20857;-75
2023/03/10 12:12:40;;;;;;;7.07;2.40;;;12.20;77.90;;;;;;5031588;28;20406;-75
2023/03/10 12:15:31;;;;;;;5.72;2.50;;;12.40;77.40;;;;;;5032560;28;20712;-75
2023/03/10 12:17:57;;;;;;;6.50;2.42;;;12.50;74.10;;;;;;5032013;28;20453;-74
2023/03/10 12:20:29;;;;;;;14.43;2.90;;;12.70;72.60;;;;;;5032774;28;20383;-74
2023/03/10 12:23:23;;;;;;;7.25;2.17;;;12.80;70.60;;;;;;5032058;28;20764;-74
2023/03/10 12:25:49;;;;;;;8.55;2.20;;;12.90;68.30;;;;;;5032213;28;20398;-74
2023/03/10 12:28:14;;;;;;;3.23;2.03;;;12.80;69.80;;;;;;5032289;28;20446;-74
2023/03/10 12:31:05;;;;;;;5.57;2.20;;;12.70;70.20;;;;;;5032846;28;20983;-73
2023/03/10 12:33:32;;;;;;;4.13;1.80;;;12.50;73.00;;;;;;5032526;28;20791;-73
2023/03/10 12:36:19;;;;;;;3.53;1.60;;;12.40;74.60;;;;;;5032022;28;20387;-74
2023/03/10 12:38:52;;;;;;;4.65;1.70;;;12.30;74.70;;;;;;5032277;28;20869;-74
2023/03/10 12:41:27;;;;;;;7.70;1.80;;;12.20;75.50;;;;;;5032060;28;20406;-74
2023/03/10 12:44:06;;;;;;;3.80;1.50;;;12.20;76.70;;;;;;5032070;28;20446;-73
2023/03/10 12:46:46;;;;;;;4.60;1.60;;;12.10;76.60;;;;;;5033223;28;20375;-73
2023/03/10 12:49:36;;;;;;;1.88;1.05;;;12.10;80.40;;;;;;5032167;28;20393;-73
2023/03/10 12:52:26;;;;;;;3.83;1.20;;;12.10;77.50;;;;;;5033620;28;20470;-73